createdAt,value
2022-09-17T00:00:17.871Z,16.51
2022-09-17T00:01:17.898Z,16.43
2022-09-17T00:02:18.600Z,16.56
2022-09-17T00:03:18.737Z,16.49
2022-09-17T00:04:18.204Z,16.51
2022-09-17T00:05:18.224Z,16.5
2022-09-17T00:06:18.253Z,16.43
2022-09-17T00:07:18.008Z,16.46
2022-09-17T00:08:18.042Z,16.43
2022-09-17T00:09:18.332Z,16.5
2022-09-17T00:10:18.327Z,16.43
2022-09-17T00:11:18.098Z,16.41
2022-09-17T00:12:18.100Z,16.42
2022-09-17T00:13:18.130Z,16.49
2022-09-17T00:14:18.418Z,16.5
2022-09-17T00:15:18.427Z,16.43
2022-09-17T00:16:18.353Z,16.39
2022-09-17T00:17:18.216Z,16.49
2022-09-17T00:18:18.357Z,16.43
2022-09-17T00:19:18.758Z,16.41
2022-09-17T00:20:18.270Z,16.43
2022-09-17T00:21:18.550Z,16.43
2022-09-17T00:22:18.298Z,16.39
2022-09-17T00:23:18.586Z,16.43
2022-09-17T00:24:18.596Z,16.41
2022-09-17T00:25:18.359Z,16.41
2022-09-17T00:26:18.394Z,16.49
2022-09-17T00:27:18.401Z,16.39
2022-09-17T00:28:18.574Z,16.42
2022-09-17T00:29:18.179Z,16.47
2022-09-17T00:30:18.448Z,16.38
2022-09-17T00:31:19.027Z,16.41
2022-09-17T00:32:18.706Z,16.39
2022-09-17T00:33:18.776Z,16.39
2022-09-17T00:34:18.924Z,16.42
2022-09-17T00:35:19.056Z,16.42
2022-09-17T00:36:18.334Z,16.41
2022-09-17T00:37:18.337Z,16.39
2022-09-17T00:38:18.872Z,16.36
2022-09-17T00:39:18.643Z,16.39
2022-09-17T00:40:18.947Z,16.43
2022-09-17T00:41:18.409Z,16.35
2022-09-17T00:42:18.957Z,16.39
2022-09-17T00:43:18.976Z,16.43
2022-09-17T00:44:18.989Z,16.33
2022-09-17T00:45:18.498Z,16.39
2022-09-17T00:46:19.249Z,16.42
2022-09-17T00:47:18.804Z,16.42
2022-09-17T00:48:18.811Z,16.38
2022-09-17T00:49:19.089Z,16.38
2022-09-17T00:50:19.254Z,16.35
2022-09-17T00:51:19.378Z,16.38
2022-09-17T00:52:18.629Z,16.42
2022-09-17T00:53:19.173Z,16.35
2022-09-17T00:54:18.930Z,16.32
2022-09-17T00:55:18.694Z,16.41
2022-09-17T00:56:19.227Z,16.39
2022-09-17T00:57:19.272Z,16.38
2022-09-17T00:58:19.262Z,16.39
2022-09-17T00:59:19.025Z,16.31
2022-09-17T01:00:19.078Z,16.33
2022-09-17T01:01:19.544Z,16.35
2022-09-17T01:02:19.488Z,16.32
2022-09-17T01:03:19.110Z,16.31
2022-09-17T01:04:19.386Z,16.29
2022-09-17T01:05:18.893Z,16.36
2022-09-17T01:06:19.301Z,16.35
2022-09-17T01:07:19.680Z,16.32
2022-09-17T01:08:19.206Z,16.32
2022-09-17T01:09:19.488Z,16.35
2022-09-17T01:10:19.497Z,16.33
2022-09-17T01:11:19.267Z,16.33
2022-09-17T01:12:19.545Z,16.33
2022-09-17T01:13:19.300Z,16.29
2022-09-17T01:14:19.574Z,16.32
2022-09-17T01:15:19.347Z,16.33
2022-09-17T01:16:19.806Z,16.29
2022-09-17T01:17:19.383Z,16.31
2022-09-17T01:18:19.133Z,16.29
2022-09-17T01:19:19.675Z,16.31
2022-09-17T01:20:19.443Z,16.31
2022-09-17T01:21:19.724Z,16.26
2022-09-17T01:22:19.600Z,16.29
2022-09-17T01:23:20.000Z,16.35
2022-09-17T01:24:19.775Z,16.28
2022-09-17T01:25:19.546Z,16.26
2022-09-17T01:26:19.818Z,16.32
2022-09-17T01:27:19.848Z,16.31
2022-09-17T01:28:19.798Z,16.31
2022-09-17T01:29:19.614Z,16.31
2022-09-17T01:30:19.651Z,16.28
2022-09-17T01:31:20.221Z,16.26
2022-09-17T01:32:19.938Z,16.31
2022-09-17T01:33:19.698Z,16.31
2022-09-17T01:34:19.716Z,16.32
2022-09-17T01:35:19.991Z,16.28
2022-09-17T01:36:19.755Z,16.15
2022-09-17T01:37:19.769Z,16.29
2022-09-17T01:38:19.915Z,16.28
2022-09-17T01:39:20.320Z,16.32
2022-09-17T01:40:20.076Z,16.29
2022-09-17T01:41:20.105Z,16.31
2022-09-17T01:42:19.622Z,16.33
2022-09-17T01:43:20.139Z,16.23
2022-09-17T01:44:20.243Z,16.23
2022-09-17T01:45:20.188Z,16.29
2022-09-17T01:46:20.383Z,16.31
2022-09-17T01:47:25.283Z,16.21
2022-09-17T01:48:19.734Z,16.2
2022-09-17T01:49:20.261Z,16.16
2022-09-17T01:50:20.033Z,16.2
2022-09-17T01:51:20.040Z,16.29
2022-09-17T01:52:20.322Z,16.24
2022-09-17T01:53:20.082Z,16.2
2022-09-17T01:54:20.491Z,16.24
2022-09-17T01:55:20.662Z,16.2
2022-09-17T01:56:19.872Z,16.24
2022-09-17T01:57:19.908Z,16.23
2022-09-17T01:58:19.920Z,16.21
2022-09-17T01:59:20.195Z,16.23
2022-09-17T02:00:20.223Z,16.21
2022-09-17T02:01:20.732Z,16.2
2022-09-17T02:02:20.764Z,16.17
2022-09-17T02:03:20.283Z,16.21
2022-09-17T02:04:20.314Z,16.15
2022-09-17T02:05:20.061Z,16.23
2022-09-17T02:06:20.084Z,16.21
2022-09-17T02:07:20.350Z,16.15
2022-09-17T02:08:20.119Z,16.13
2022-09-17T02:09:20.391Z,16.21
2022-09-17T02:10:20.548Z,16.2
2022-09-17T02:11:20.936Z,16.15
2022-09-17T02:12:20.464Z,16.21
2022-09-17T02:13:20.481Z,16.2
2022-09-17T02:14:20.746Z,16.15
2022-09-17T02:15:20.266Z,16.24
2022-09-17T02:16:21.059Z,16.21
2022-09-17T02:17:20.551Z,16.17
2022-09-17T02:18:20.570Z,16.2
2022-09-17T02:19:20.580Z,16.13
2022-09-17T02:20:25.489Z,16.15
2022-09-17T02:21:20.629Z,16.17
2022-09-17T02:22:20.904Z,16.08
2022-09-17T02:23:20.923Z,16.2
2022-09-17T02:24:20.952Z,16.09
2022-09-17T02:25:20.962Z,16.16
2022-09-17T02:26:21.108Z,16.1
2022-09-17T02:27:21.263Z,16.17
2022-09-17T02:28:21.169Z,16.1
2022-09-17T02:29:21.043Z,16.08
2022-09-17T02:30:21.064Z,16.1
2022-09-17T02:31:21.334Z,16.08
2022-09-17T02:32:20.853Z,16.08
2022-09-17T02:33:20.866Z,16.05
2022-09-17T02:34:21.167Z,16.15
2022-09-17T02:35:21.156Z,16.08
2022-09-17T02:36:20.911Z,16.08
2022-09-17T02:37:21.192Z,16.1
2022-09-17T02:38:21.230Z,16.08
2022-09-17T02:39:21.238Z,16.15
2022-09-17T02:40:21.571Z,16.12
2022-09-17T02:41:21.016Z,16.12
2022-09-17T02:42:21.414Z,16.09
2022-09-17T02:43:21.565Z,16.08
2022-09-17T02:44:21.080Z,16.04
2022-09-17T02:45:21.092Z,16.01
2022-09-17T02:46:21.557Z,16.1
2022-09-17T02:47:21.138Z,16.04
2022-09-17T02:48:21.170Z,16.02
2022-09-17T02:49:21.179Z,16.09
2022-09-17T02:50:21.441Z,16.09
2022-09-17T02:51:21.208Z,16.09
2022-09-17T02:52:21.230Z,16.02
2022-09-17T02:53:21.247Z,16.01
2022-09-17T02:54:21.264Z,16.13
2022-09-17T02:55:21.296Z,16.09
2022-09-17T02:56:21.311Z,16.04
2022-09-17T02:57:21.329Z,16.02
2022-09-17T02:58:21.215Z,16.04
2022-09-17T02:59:21.880Z,16.01
2022-09-17T03:00:21.649Z,16.12
2022-09-17T03:01:21.860Z,16.04
2022-09-17T03:02:22.041Z,16.05
2022-09-17T03:03:21.698Z,15.97
2022-09-17T03:04:21.457Z,15.95
2022-09-17T03:05:21.745Z,16
2022-09-17T03:06:21.769Z,16
2022-09-17T03:07:21.783Z,16.01
2022-09-17T03:08:21.790Z,15.95
2022-09-17T03:09:21.840Z,16.01
2022-09-17T03:10:21.833Z,16.02
2022-09-17T03:11:21.623Z,16.08
2022-09-17T03:12:21.879Z,15.98
2022-09-17T03:13:21.903Z,16.02
2022-09-17T03:14:21.779Z,16.01
2022-09-17T03:15:22.172Z,15.92
2022-09-17T03:16:22.026Z,15.98
2022-09-17T03:17:21.963Z,15.92
2022-09-17T03:18:21.750Z,15.94
2022-09-17T03:19:21.497Z,15.92
2022-09-17T03:20:22.033Z,15.9
2022-09-17T03:21:22.057Z,15.97
2022-09-17T03:22:22.069Z,15.88
2022-09-17T03:23:21.832Z,15.98
2022-09-17T03:24:22.109Z,16.02
2022-09-17T03:25:22.127Z,15.94
2022-09-17T03:26:21.885Z,15.97
2022-09-17T03:27:22.163Z,15.95
2022-09-17T03:28:22.409Z,15.92
2022-09-17T03:29:21.949Z,15.98
2022-09-17T03:30:22.338Z,16
2022-09-17T03:31:22.731Z,15.97
2022-09-17T03:32:22.011Z,15.95
2022-09-17T03:33:22.034Z,15.94
2022-09-17T03:34:22.048Z,15.9
2022-09-17T03:35:22.316Z,15.98
2022-09-17T03:36:22.091Z,15.94
2022-09-17T03:37:22.359Z,15.8
2022-09-17T03:38:22.381Z,15.97
2022-09-17T03:39:22.397Z,15.92
2022-09-17T03:40:22.294Z,15.91
2022-09-17T03:41:22.431Z,15.94
2022-09-17T03:42:22.451Z,15.91
2022-09-17T03:43:22.488Z,15.82
2022-09-17T03:44:22.501Z,15.9
2022-09-17T03:45:22.017Z,15.84
2022-09-17T03:46:22.626Z,15.86
2022-09-17T03:47:22.797Z,15.95
2022-09-17T03:48:22.306Z,15.83
2022-09-17T03:49:22.328Z,15.9
2022-09-17T03:50:22.390Z,15.86
2022-09-17T03:51:22.365Z,15.83
2022-09-17T03:52:22.385Z,15.86
2022-09-17T03:53:22.403Z,15.82
2022-09-17T03:54:22.422Z,15.79
2022-09-17T03:55:22.708Z,15.79
2022-09-17T03:56:22.801Z,15.79
2022-09-17T03:57:22.501Z,15.79
2022-09-17T03:58:22.500Z,15.79
2022-09-17T03:59:22.783Z,15.82
2022-09-17T04:00:22.545Z,15.79
2022-09-17T04:01:22.486Z,15.84
2022-09-17T04:02:23.145Z,15.82
2022-09-17T04:03:23.103Z,15.79
2022-09-17T04:04:22.871Z,15.8
2022-09-17T04:05:22.379Z,15.8
2022-09-17T04:06:22.655Z,15.77
2022-09-17T04:07:22.933Z,15.77
2022-09-17T04:08:22.956Z,15.8
2022-09-17T04:09:22.720Z,15.82
2022-09-17T04:10:22.994Z,15.75
2022-09-17T04:11:22.500Z,15.76
2022-09-17T04:12:22.516Z,15.75
2022-09-17T04:13:22.805Z,15.73
2022-09-17T04:14:23.069Z,15.75
2022-09-17T04:15:22.838Z,15.8
2022-09-17T04:16:23.150Z,15.77
2022-09-17T04:17:22.862Z,15.8
2022-09-17T04:18:23.272Z,15.79
2022-09-17T04:19:23.414Z,15.73
2022-09-17T04:20:22.670Z,15.75
2022-09-17T04:21:23.201Z,15.7
2022-09-17T04:22:22.961Z,15.68
2022-09-17T04:23:22.977Z,15.77
2022-09-17T04:24:23.003Z,15.75
2022-09-17T04:25:23.032Z,15.65
2022-09-17T04:26:22.783Z,15.7
2022-09-17T04:27:23.076Z,15.67
2022-09-17T04:28:23.540Z,15.65
2022-09-17T04:29:23.361Z,15.64
2022-09-17T04:30:23.136Z,15.72
2022-09-17T04:31:23.352Z,15.65
2022-09-17T04:32:22.899Z,15.67
2022-09-17T04:33:23.429Z,15.65
2022-09-17T04:34:23.580Z,15.59
2022-09-17T04:35:23.733Z,15.7
2022-09-17T04:36:23.481Z,15.7
2022-09-17T04:37:23.507Z,15.68
2022-09-17T04:38:23.044Z,15.7
2022-09-17T04:39:23.291Z,15.61
2022-09-17T04:40:23.499Z,15.67
2022-09-17T04:41:23.582Z,15.67
2022-09-17T04:42:23.346Z,15.64
2022-09-17T04:43:23.364Z,15.58
2022-09-17T04:44:23.640Z,15.68
2022-09-17T04:45:23.669Z,15.7
2022-09-17T04:46:23.676Z,15.68
2022-09-17T04:47:23.822Z,15.62
2022-09-17T04:48:23.470Z,15.65
2022-09-17T04:49:23.757Z,15.58
2022-09-17T04:50:23.887Z,15.68
2022-09-17T04:51:24.018Z,15.57
2022-09-17T04:52:25.582Z,15.61
2022-09-17T04:53:23.567Z,15.64
2022-09-17T04:54:23.833Z,15.62
2022-09-17T04:55:23.853Z,15.64
2022-09-17T04:56:23.615Z,15.57
2022-09-17T04:57:23.900Z,15.64
2022-09-17T04:58:23.907Z,15.64
2022-09-17T04:59:23.670Z,15.64
2022-09-17T05:00:23.435Z,15.64
2022-09-17T05:01:23.712Z,15.64
2022-09-17T05:02:23.678Z,15.55
2022-09-17T05:03:23.750Z,15.64
2022-09-17T05:04:23.762Z,15.58
2022-09-17T05:05:24.051Z,15.65
2022-09-17T05:06:24.194Z,15.64
2022-09-17T05:07:24.325Z,15.61
2022-09-17T05:08:23.923Z,15.58
2022-09-17T05:09:24.128Z,15.62
2022-09-17T05:10:23.893Z,15.57
2022-09-17T05:11:23.895Z,15.64
2022-09-17T05:12:23.921Z,15.64
2022-09-17T05:13:24.194Z,15.68
2022-09-17T05:14:23.712Z,15.58
2022-09-17T05:15:23.981Z,15.61
2022-09-17T05:16:24.674Z,15.59
2022-09-17T05:17:24.272Z,15.61
2022-09-17T05:18:24.046Z,15.59
2022-09-17T05:19:24.053Z,15.57
2022-09-17T05:20:24.239Z,15.59
2022-09-17T05:21:23.838Z,15.62
2022-09-17T05:22:26.647Z,15.62
2022-09-17T05:23:24.519Z,15.61
2022-09-17T05:24:24.408Z,15.62
2022-09-17T05:25:24.452Z,15.58
2022-09-17T05:26:24.443Z,15.62
2022-09-17T05:27:24.206Z,15.55
2022-09-17T05:28:24.688Z,15.61
2022-09-17T05:29:24.495Z,15.59
2022-09-17T05:30:24.527Z,15.59
2022-09-17T05:31:24.462Z,15.59
2022-09-17T05:32:24.299Z,15.57
2022-09-17T05:33:24.324Z,15.57
2022-09-17T05:34:24.608Z,15.61
2022-09-17T05:35:24.358Z,15.55
2022-09-17T05:36:24.639Z,15.64
2022-09-17T05:37:24.142Z,15.59
2022-09-17T05:38:24.937Z,15.64
2022-09-17T05:39:24.834Z,15.57
2022-09-17T05:40:24.871Z,15.58
2022-09-17T05:41:24.740Z,15.57
2022-09-17T05:42:24.499Z,15.58
2022-09-17T05:43:24.261Z,15.58
2022-09-17T05:44:24.794Z,15.58
2022-09-17T05:45:24.554Z,15.59
2022-09-17T05:46:25.104Z,15.58
2022-09-17T05:47:24.866Z,15.57
2022-09-17T05:48:24.358Z,15.55
2022-09-17T05:49:24.631Z,15.55
2022-09-17T05:50:24.921Z,15.55
2022-09-17T05:51:24.680Z,15.57
2022-09-17T05:52:24.697Z,15.54
2022-09-17T05:53:24.728Z,15.58
2022-09-17T05:54:25.284Z,15.62
2022-09-17T05:55:24.874Z,15.55
2022-09-17T05:56:24.778Z,15.58
2022-09-17T05:57:24.794Z,15.55
2022-09-17T05:58:25.073Z,15.59
2022-09-17T05:59:24.834Z,15.57
2022-09-17T06:00:24.842Z,15.61
2022-09-17T06:01:25.166Z,15.58
2022-09-17T06:02:25.133Z,15.57
2022-09-17T06:03:25.392Z,15.61
2022-09-17T06:04:24.925Z,15.55
2022-09-17T06:05:24.945Z,15.61
2022-09-17T06:06:25.241Z,15.58
2022-09-17T06:07:25.238Z,15.58
2022-09-17T06:08:25.031Z,15.57
2022-09-17T06:09:25.014Z,15.58
2022-09-17T06:10:25.284Z,15.47
2022-09-17T06:11:25.437Z,15.59
2022-09-17T06:12:25.328Z,15.58
2022-09-17T06:13:25.385Z,15.55
2022-09-17T06:14:24.857Z,15.54
2022-09-17T06:15:25.400Z,15.51
2022-09-17T06:16:25.664Z,15.54
2022-09-17T06:17:26.913Z,15.58
2022-09-17T06:18:25.192Z,15.54
2022-09-17T06:19:25.225Z,15.54
2022-09-17T06:20:25.503Z,15.55
2022-09-17T06:21:25.516Z,15.54
2022-09-17T06:22:25.268Z,15.55
2022-09-17T06:23:25.543Z,15.52
2022-09-17T06:24:25.298Z,15.54
2022-09-17T06:25:25.323Z,15.52
2022-09-17T06:26:25.853Z,15.58
2022-09-17T06:27:25.506Z,15.51
2022-09-17T06:28:25.621Z,15.59
2022-09-17T06:29:25.405Z,15.62
2022-09-17T06:30:25.683Z,15.57
2022-09-17T06:31:25.417Z,15.55
2022-09-17T06:32:25.710Z,15.58
2022-09-17T06:33:25.738Z,15.55
2022-09-17T06:34:25.766Z,15.62
2022-09-17T06:35:25.773Z,15.65
2022-09-17T06:36:25.552Z,15.62
2022-09-17T06:37:25.860Z,15.59
2022-09-17T06:38:25.839Z,15.59
2022-09-17T06:39:25.853Z,15.58
2022-09-17T06:40:26.328Z,15.59
2022-09-17T06:41:25.371Z,15.61
2022-09-17T06:42:26.154Z,15.58
2022-09-17T06:43:26.053Z,15.61
2022-09-17T06:44:25.688Z,15.62
2022-09-17T06:45:25.708Z,15.61
2022-09-17T06:46:25.996Z,15.61
2022-09-17T06:47:25.751Z,15.55
2022-09-17T06:48:26.030Z,15.61
2022-09-17T06:49:25.774Z,15.61
2022-09-17T06:50:26.114Z,15.61
2022-09-17T06:51:26.086Z,15.61
2022-09-17T06:52:25.848Z,15.64
2022-09-17T06:53:25.857Z,15.58
2022-09-17T06:54:26.141Z,15.64
2022-09-17T06:55:25.650Z,15.59
2022-09-17T06:56:26.173Z,15.62
2022-09-17T06:57:25.931Z,15.65
2022-09-17T06:58:26.481Z,15.64
2022-09-17T06:59:26.359Z,15.67
2022-09-17T07:00:26.259Z,15.72
2022-09-17T07:01:26.621Z,15.7
2022-09-17T07:02:26.507Z,15.62
2022-09-17T07:03:28.053Z,15.64
2022-09-17T07:04:26.067Z,15.7
2022-09-17T07:05:26.095Z,15.67
2022-09-17T07:06:26.372Z,15.65
2022-09-17T07:07:25.877Z,15.68
2022-09-17T07:08:26.417Z,15.67
2022-09-17T07:09:26.426Z,15.67
2022-09-17T07:10:26.263Z,15.65
2022-09-17T07:11:26.220Z,15.67
2022-09-17T07:12:26.225Z,15.76
2022-09-17T07:13:25.991Z,15.67
2022-09-17T07:14:26.766Z,15.82
2022-09-17T07:15:26.690Z,15.72
2022-09-17T07:16:26.912Z,15.77
2022-09-17T07:17:26.070Z,15.79
2022-09-17T07:18:26.603Z,15.79
2022-09-17T07:19:26.366Z,15.86
2022-09-17T07:20:26.495Z,15.83
2022-09-17T07:21:26.405Z,15.91
2022-09-17T07:22:26.686Z,15.84
2022-09-17T07:23:26.704Z,15.94
2022-09-17T07:24:29.522Z,15.9
2022-09-17T07:25:26.747Z,15.95
2022-09-17T07:26:26.252Z,15.9
2022-09-17T07:27:26.772Z,15.88
2022-09-17T07:28:27.000Z,15.97
2022-09-17T07:29:26.818Z,15.98
2022-09-17T07:30:27.088Z,15.88
2022-09-17T07:31:27.119Z,15.95
2022-09-17T07:32:26.868Z,16.01
2022-09-17T07:33:26.652Z,15.91
2022-09-17T07:34:26.918Z,15.94
2022-09-17T07:35:26.935Z,16.02
2022-09-17T07:36:26.718Z,15.94
2022-09-17T07:37:26.714Z,15.95
2022-09-17T07:38:27.003Z,15.94
2022-09-17T07:39:27.069Z,16.08
2022-09-17T07:40:27.283Z,15.97
2022-09-17T07:41:26.538Z,15.97
2022-09-17T07:42:26.558Z,16.04
2022-09-17T07:43:27.088Z,15.97
2022-09-17T07:44:27.108Z,16.1
2022-09-17T07:45:27.131Z,16.08
2022-09-17T07:46:27.599Z,16.05
2022-09-17T07:47:27.319Z,16.1
2022-09-17T07:48:26.933Z,16.1
2022-09-17T07:49:27.207Z,16.05
2022-09-17T07:50:26.801Z,16.05
2022-09-17T07:51:27.258Z,16.08
2022-09-17T07:52:27.252Z,16.08
2022-09-17T07:53:27.105Z,16.08
2022-09-17T07:54:27.043Z,16.05
2022-09-17T07:55:27.310Z,16.1
2022-09-17T07:56:27.082Z,16.1
2022-09-17T07:57:26.852Z,16.08
2022-09-17T07:58:27.125Z,16.09
2022-09-17T07:59:27.403Z,16.12
2022-09-17T08:00:27.223Z,16.12
2022-09-17T08:01:27.441Z,16.04
2022-09-17T08:02:29.830Z,16.16
2022-09-17T08:03:27.612Z,16.04
2022-09-17T08:04:27.241Z,16.1
2022-09-17T08:05:27.512Z,16.12
2022-09-17T08:06:27.280Z,16.08
2022-09-17T08:07:27.306Z,16.09
2022-09-17T08:08:27.579Z,16.1
2022-09-17T08:09:27.594Z,16.12
2022-09-17T08:10:27.361Z,16.01
2022-09-17T08:11:59.253Z,16.05
2022-09-17T08:12:27.396Z,16.09
2022-09-17T08:13:27.676Z,16.12
2022-09-17T08:14:33.666Z,16.08
2022-09-17T08:15:27.459Z,16.02
2022-09-17T08:16:28.100Z,16.08
2022-09-17T08:17:27.244Z,16.08
2022-09-17T08:18:28.039Z,16.02
2022-09-17T08:19:27.680Z,16.1
2022-09-17T08:20:27.549Z,16.05
2022-09-17T08:21:27.838Z,16.15
2022-09-17T08:22:27.847Z,16.2
2022-09-17T08:23:27.617Z,16.2
2022-09-17T08:24:27.894Z,16.17
2022-09-17T08:25:27.989Z,16.26
2022-09-17T08:26:27.678Z,16.13
2022-09-17T08:27:27.691Z,16.23
2022-09-17T08:28:28.218Z,16.17
2022-09-17T08:29:30.085Z,16.16
2022-09-17T08:30:28.005Z,16.24
2022-09-17T08:31:27.904Z,16.23
2022-09-17T08:32:27.531Z,16.21
2022-09-17T08:33:28.079Z,16.26
2022-09-17T08:34:28.327Z,16.29
2022-09-17T08:35:28.226Z,16.33
2022-09-17T08:36:27.749Z,16.31
2022-09-17T08:37:28.143Z,16.38
2022-09-17T08:38:28.160Z,16.36
2022-09-17T08:39:28.306Z,16.38
2022-09-17T08:40:28.154Z,16.35
2022-09-17T08:41:27.966Z,16.33
2022-09-17T08:42:28.232Z,16.39
2022-09-17T08:43:28.259Z,16.42
2022-09-17T08:44:28.024Z,16.49
2022-09-17T08:45:28.041Z,16.47
2022-09-17T08:46:28.275Z,16.5
2022-09-17T08:47:28.078Z,16.53
2022-09-17T08:48:28.119Z,16.47
2022-09-17T08:49:28.386Z,16.57
2022-09-17T08:50:28.394Z,16.51
2022-09-17T08:51:28.531Z,16.57
2022-09-17T08:52:28.179Z,16.57
2022-09-17T08:53:28.224Z,16.53
2022-09-17T08:54:28.484Z,16.54
2022-09-17T08:55:28.234Z,16.51
2022-09-17T08:56:29.202Z,16.58
2022-09-17T08:57:28.555Z,16.53
2022-09-17T08:58:28.562Z,16.58
2022-09-17T08:59:28.068Z,16.47
2022-09-17T09:00:28.605Z,16.56
2022-09-17T09:01:28.829Z,16.61
2022-09-17T09:02:28.563Z,16.66
2022-09-17T09:03:28.656Z,16.6
2022-09-17T09:04:28.165Z,16.61
2022-09-17T09:05:28.441Z,16.54
2022-09-17T09:06:28.952Z,16.54
2022-09-17T09:07:28.865Z,16.61
2022-09-17T09:08:28.553Z,16.53
2022-09-17T09:09:28.315Z,16.57
2022-09-17T09:10:28.281Z,16.69
2022-09-17T09:11:28.827Z,16.51
2022-09-17T09:12:28.849Z,16.6
2022-09-17T09:13:28.594Z,16.58
2022-09-17T09:14:28.620Z,16.68
2022-09-17T09:15:28.634Z,16.61
2022-09-17T09:16:28.894Z,16.64
2022-09-17T09:17:28.682Z,16.75
2022-09-17T09:18:28.692Z,16.75
2022-09-17T09:19:28.788Z,16.75
2022-09-17T09:20:28.740Z,16.69
2022-09-17T09:21:29.020Z,16.74
2022-09-17T09:22:29.278Z,16.78
2022-09-17T09:23:29.183Z,16.71
2022-09-17T09:24:29.079Z,16.71
2022-09-17T09:25:29.100Z,16.78
2022-09-17T09:26:28.861Z,16.83
2022-09-17T09:27:28.618Z,16.87
2022-09-17T09:28:29.097Z,16.91
2022-09-17T09:29:29.174Z,16.9
2022-09-17T09:30:28.940Z,16.93
2022-09-17T09:31:28.918Z,16.89
2022-09-17T09:32:28.984Z,16.96
2022-09-17T09:33:29.258Z,16.96
2022-09-17T09:34:29.018Z,17.01
2022-09-17T09:35:29.303Z,17.01
2022-09-17T09:36:29.057Z,16.99
2022-09-17T09:37:29.079Z,17.04
2022-09-17T09:38:29.588Z,16.99
2022-09-17T09:39:31.447Z,17.06
2022-09-17T09:40:29.627Z,16.99
2022-09-17T09:41:29.162Z,17.02
2022-09-17T09:42:28.927Z,16.99
2022-09-17T09:44:05.850Z,17.05
2022-09-17T09:44:29.483Z,17.02
2022-09-17T09:45:29.502Z,17.06
2022-09-17T09:46:29.547Z,17.02
2022-09-17T09:47:29.533Z,16.93
2022-09-17T09:48:29.566Z,17.04
2022-09-17T09:49:29.438Z,17.05
2022-09-17T09:51:05.000Z,17.04
2022-09-17T09:51:29.369Z,17.01
2022-09-17T09:52:29.633Z,17.02
2022-09-17T09:53:29.422Z,17.04
2022-09-17T09:54:29.916Z,16.96
2022-09-17T09:55:31.834Z,17.09
2022-09-17T09:56:29.717Z,17.06
2022-09-17T09:57:29.735Z,17.11
2022-09-17T09:58:29.502Z,16.99
2022-09-17T09:59:29.848Z,17.11
2022-09-17T10:00:29.542Z,17.11
2022-09-17T10:01:30.125Z,17.08
2022-09-17T10:02:30.069Z,17.01
2022-09-17T10:03:29.928Z,17.08
2022-09-17T10:04:29.872Z,17.02
2022-09-17T10:05:29.898Z,17.15
2022-09-17T10:06:29.921Z,17.05
2022-09-17T10:07:29.429Z,17.04
2022-09-17T10:08:29.453Z,17.04
2022-09-17T10:09:29.462Z,17.05
2022-09-17T10:10:30.271Z,17.04
2022-09-17T10:11:30.165Z,17.06
2022-09-17T10:12:29.778Z,17.02
2022-09-17T10:13:29.800Z,17.04
2022-09-17T10:14:30.079Z,16.99
2022-09-17T10:15:29.847Z,16.96
2022-09-17T10:16:30.269Z,16.91
2022-09-17T10:17:30.129Z,17.01
2022-09-17T10:18:29.914Z,16.93
2022-09-17T10:19:30.045Z,17.04
2022-09-17T10:20:30.203Z,16.97
2022-09-17T10:21:30.224Z,17.05
2022-09-17T10:22:29.724Z,17.05
2022-09-17T10:23:29.744Z,16.93
2022-09-17T10:24:30.029Z,17.08
2022-09-17T10:25:29.785Z,16.97
2022-09-17T10:26:30.323Z,16.96
2022-09-17T10:27:30.476Z,17.06
2022-09-17T10:28:30.608Z,17.02
2022-09-17T10:29:30.464Z,17.08
2022-09-17T10:30:29.889Z,17.06
2022-09-17T10:31:30.327Z,17.02
2022-09-17T10:32:30.440Z,17.08
2022-09-17T10:33:30.222Z,17.09
2022-09-17T10:34:30.500Z,17.15
2022-09-17T10:35:30.251Z,17.11
2022-09-17T10:36:32.710Z,17.16
2022-09-17T10:37:30.033Z,17.11
2022-09-17T10:38:30.313Z,17.14
2022-09-17T10:39:30.701Z,17.09
2022-09-17T10:40:30.605Z,17.23
2022-09-17T10:41:30.109Z,17.19
2022-09-17T10:42:30.890Z,17.14
2022-09-17T10:43:30.789Z,17.16
2022-09-17T10:44:30.438Z,17.26
2022-09-17T10:45:30.706Z,17.16
2022-09-17T10:46:32.334Z,17.24
2022-09-17T10:47:30.237Z,17.16
2022-09-17T10:48:30.774Z,17.22
2022-09-17T10:49:30.274Z,17.15
2022-09-17T10:50:30.810Z,17.2
2022-09-17T10:51:30.570Z,17.22
2022-09-17T10:52:30.344Z,17.23
2022-09-17T10:53:30.612Z,17.26
2022-09-17T10:54:30.880Z,17.26
2022-09-17T10:55:30.921Z,17.29
2022-09-17T10:56:30.676Z,17.27
2022-09-17T10:57:30.690Z,17.34
2022-09-17T10:58:30.969Z,17.34
2022-09-17T10:59:31.118Z,17.34
2022-09-17T11:00:30.492Z,17.45
2022-09-17T11:01:30.681Z,17.45
2022-09-17T11:02:31.587Z,17.46
2022-09-17T11:03:31.073Z,17.46
2022-09-17T11:04:31.105Z,17.46
2022-09-17T11:05:30.863Z,17.44
2022-09-17T11:06:31.137Z,17.45
2022-09-17T11:07:31.164Z,17.44
2022-09-17T11:08:31.177Z,17.42
2022-09-17T11:09:30.682Z,17.45
2022-09-17T11:10:30.969Z,17.39
2022-09-17T11:11:30.984Z,17.38
2022-09-17T11:12:31.248Z,17.46
2022-09-17T11:13:31.281Z,17.44
2022-09-17T11:14:31.193Z,17.45
2022-09-17T11:15:31.444Z,17.41
2022-09-17T11:16:31.027Z,17.44
2022-09-17T11:17:31.098Z,17.42
2022-09-17T11:18:31.117Z,17.42
2022-09-17T11:19:31.149Z,17.41
2022-09-17T11:20:31.159Z,17.57
2022-09-17T11:21:31.191Z,17.44
2022-09-17T11:22:31.457Z,17.41
2022-09-17T11:23:31.236Z,17.51
2022-09-17T11:24:31.238Z,17.46
2022-09-17T11:25:31.517Z,17.57
2022-09-17T11:26:31.282Z,17.54
2022-09-17T11:27:31.563Z,17.51
2022-09-17T11:28:31.726Z,17.52
2022-09-17T11:29:31.643Z,17.6
2022-09-17T11:30:31.612Z,17.59
2022-09-17T11:31:32.039Z,17.52
2022-09-17T11:32:31.416Z,17.57
2022-09-17T11:33:31.681Z,17.52
2022-09-17T11:34:31.698Z,17.52
2022-09-17T11:35:31.468Z,17.52
2022-09-17T11:36:31.240Z,17.42
2022-09-17T11:37:31.518Z,17.38
2022-09-17T11:38:31.794Z,17.39
2022-09-17T11:39:31.810Z,17.42
2022-09-17T11:40:31.697Z,17.45
2022-09-17T11:41:31.591Z,17.44
2022-09-17T11:42:31.617Z,17.44
2022-09-17T11:43:31.369Z,17.45
2022-09-17T11:44:31.901Z,17.38
2022-09-17T11:45:31.668Z,17.42
2022-09-17T11:46:32.394Z,17.41
2022-09-17T11:47:32.093Z,17.42
2022-09-17T11:48:31.744Z,17.33
2022-09-17T11:49:32.005Z,17.34
2022-09-17T11:50:31.768Z,17.3
2022-09-17T11:51:31.789Z,17.3
2022-09-17T11:52:31.565Z,17.34
2022-09-17T11:53:32.085Z,17.34
2022-09-17T11:54:31.853Z,17.33
2022-09-17T11:55:32.128Z,17.39
2022-09-17T11:56:31.636Z,17.3
2022-09-17T11:57:32.176Z,17.34
2022-09-17T11:58:31.674Z,17.34
2022-09-17T11:59:31.974Z,17.33
2022-09-17T12:00:32.234Z,17.38
2022-09-17T12:01:32.122Z,17.39
2022-09-17T12:02:32.816Z,17.33
2022-09-17T12:03:32.516Z,17.39
2022-09-17T12:04:32.061Z,17.39
2022-09-17T12:05:32.075Z,17.34
2022-09-17T12:06:32.363Z,17.3
2022-09-17T12:07:32.119Z,17.33
2022-09-17T12:08:32.158Z,17.26
2022-09-17T12:09:32.162Z,17.33
2022-09-17T12:10:32.184Z,17.36
2022-09-17T12:11:32.199Z,17.22
2022-09-17T12:12:53.771Z,17.27
2022-09-17T12:13:32.237Z,17.26
2022-09-17T12:14:32.259Z,17.27
2022-09-17T12:15:32.534Z,17.24
2022-09-17T12:16:32.896Z,17.24
2022-09-17T12:17:32.578Z,17.22
2022-09-17T12:18:37.407Z,17.24
2022-09-17T12:19:32.488Z,17.27
2022-09-17T12:20:32.382Z,17.23
2022-09-17T12:21:32.654Z,17.3
2022-09-17T12:22:34.278Z,17.29
2022-09-17T12:23:32.595Z,17.26
2022-09-17T12:24:32.212Z,17.34
2022-09-17T12:25:32.226Z,17.41
2022-09-17T12:26:32.760Z,17.41
2022-09-17T12:27:32.529Z,17.38
2022-09-17T12:28:32.581Z,17.44
2022-09-17T12:29:32.589Z,17.42
2022-09-17T12:30:32.834Z,17.46
2022-09-17T12:31:33.020Z,17.46
2022-09-17T12:32:32.895Z,17.42
2022-09-17T12:33:32.630Z,17.44
2022-09-17T12:34:32.907Z,17.44
2022-09-17T12:36:07.583Z,17.44
2022-09-17T12:36:32.956Z,17.42
2022-09-17T12:37:32.977Z,17.44
2022-09-17T12:38:32.490Z,17.41
2022-09-17T12:39:32.754Z,17.44
2022-09-17T12:40:32.802Z,17.41
2022-09-17T12:41:32.805Z,17.44
2022-09-17T12:42:32.823Z,17.51
2022-09-17T12:43:32.843Z,17.54
2022-09-17T12:44:32.863Z,17.52
2022-09-17T12:45:33.148Z,17.56
2022-09-17T12:46:33.345Z,17.63
2022-09-17T12:47:32.922Z,17.59
2022-09-17T12:48:32.943Z,17.67
2022-09-17T12:49:32.961Z,17.7
2022-09-17T12:50:33.481Z,17.72
2022-09-17T12:51:33.382Z,17.72
2022-09-17T12:52:33.017Z,17.76
2022-09-17T12:53:33.305Z,17.86
2022-09-17T12:54:33.310Z,17.94